Terminal Aerodrome Forecast
Issued by NWS Quad Cities IA IL

Home | Current Version | Previous Version | Text Only | Print | Product List | Glossary On
Versions: 1 2 3 4 5 6 7 8 9 10 11 12 13 14 15 16 17 18 19
000
FTUS43 KDVN 260800 AAB
TAFDBQ
TAF AMD
KDBQ 260838Z 2609/2706 33004KT P6SM BKN018 BKN050
     FM261000 34006KT P6SM VCSH SCT018 BKN050
     FM261400 01006KT P6SM SCT080
     FM261800 02005KT P6SM SCT035 BKN120=

USA.gov is the U.S. government's official web portal to all federal, state and local government web resources and services.